createdAt,value
2019-02-26T00:04:02.041Z,17.17
2019-02-26T00:09:08.450Z,17.57
2019-02-26T00:14:15.502Z,15.50
2019-02-26T00:19:17.019Z,14.27
2019-02-26T00:24:20.501Z,15.30
2019-02-26T00:29:25.342Z,19.07
2019-02-26T00:34:30.471Z,19.33
2019-02-26T00:39:34.317Z,18.83
2019-02-26T00:44:37.754Z,21.07
2019-02-26T00:49:41.978Z,18.87
2019-02-26T00:54:46.297Z,22.47
2019-02-26T00:59:49.713Z,19.20
2019-02-26T01:04:53.168Z,22.57
2019-02-26T01:09:56.984Z,20.47
2019-02-26T01:15:03.136Z,19.47
2019-02-26T01:20:10.015Z,18.53
2019-02-26T01:25:15.867Z,23.70
2019-02-26T01:30:23.562Z,22.07
2019-02-26T01:35:23.920Z,18.30
2019-02-26T01:40:27.358Z,20.83
2019-02-26T01:45:32.408Z,20.07
2019-02-26T01:50:37.854Z,18.47
2019-02-26T01:55:42.071Z,19.83
2019-02-26T02:00:46.139Z,19.20
2019-02-26T02:05:50.343Z,19.13
2019-02-26T02:10:58.918Z,18.57
2019-02-26T02:16:02.035Z,24.20
2019-02-26T02:21:04.961Z,18.53
2019-02-26T02:26:09.426Z,18.50
2019-02-26T02:31:13.598Z,17.27
2019-02-26T02:36:17.734Z,22.67
2019-02-26T02:41:22.161Z,19.17
2019-02-26T02:46:25.643Z,17.47
2019-02-26T02:51:31.470Z,16.57
2019-02-26T02:56:37.001Z,16.43
2019-02-26T03:01:39.576Z,18.30
2019-02-26T03:06:42.999Z,17.30
2019-02-26T03:11:47.256Z,15.87
2019-02-26T03:16:53.482Z,18.10
2019-02-26T03:21:56.684Z,18.43
2019-02-26T03:27:00.247Z,14.27
2019-02-26T03:32:03.617Z,19.53
2019-02-26T03:37:08.230Z,15.30
2019-02-26T03:42:14.156Z,19.33
2019-02-26T03:47:18.724Z,18.03
2019-02-26T03:52:22.689Z,20.07
2019-02-26T03:57:26.117Z,15.60
2019-02-26T04:02:29.610Z,19.63
2019-02-26T04:07:33.968Z,17.53
2019-02-26T04:12:41.830Z,17.03
2019-02-26T04:17:43.394Z,16.63
2019-02-26T04:22:49.918Z,13.90
2019-02-26T04:27:56.991Z,18.50
2019-02-26T04:33:39.243Z,12.03
2019-02-26T04:39:18.928Z,15.10
2019-02-26T04:44:29.221Z,17.93
2019-02-26T04:49:36.010Z,16.80
2019-02-26T04:54:39.582Z,14.37
2019-02-26T04:59:44.037Z,12.03
2019-02-26T05:04:47.552Z,16.00
2019-02-26T05:09:53.253Z,13.70
2019-02-26T05:14:56.124Z,15.90
2019-02-26T05:19:59.633Z,19.20
2019-02-26T05:25:04.755Z,14.93
2019-02-26T05:30:12.455Z,13.70
2019-02-26T05:35:17.363Z,16.17
2019-02-26T05:40:22.100Z,21.73
2019-02-26T05:45:26.562Z,15.30
2019-02-26T05:50:32.074Z,14.77
2019-02-26T05:55:35.160Z,17.33
2019-02-26T06:00:38.639Z,22.10
2019-02-26T06:05:45.759Z,18.07
2019-02-26T06:10:47.898Z,15.87
2019-02-26T06:15:52.288Z,18.43
2019-02-26T06:20:58.442Z,15.67
2019-02-26T06:26:04.930Z,15.90
2019-02-26T06:31:06.911Z,17.37
2019-02-26T06:36:10.989Z,20.40
2019-02-26T06:41:14.432Z,17.57
2019-02-26T06:46:17.883Z,19.00
2019-02-26T06:51:23.736Z,16.77
2019-02-26T06:56:26.481Z,16.50
2019-02-26T07:01:32.385Z,17.97
2019-02-26T07:06:35.085Z,17.40
2019-02-26T07:11:38.501Z,22.27
2019-02-26T07:16:41.933Z,17.07
2019-02-26T07:21:45.486Z,17.27
2019-02-26T07:26:50.498Z,14.73
2019-02-26T07:31:54.881Z,15.03
2019-02-26T07:36:59.082Z,14.33
2019-02-26T07:42:02.521Z,17.70
2019-02-26T07:47:06.682Z,13.57
2019-02-26T07:52:11.156Z,19.67
2019-02-26T07:57:15.760Z,18.67
2019-02-26T08:02:19.721Z,23.63
2019-02-26T08:07:24.496Z,24.77
2019-02-26T08:12:28.321Z,18.83
2019-02-26T08:17:31.775Z,23.67
2019-02-26T08:22:36.290Z,20.20
2019-02-26T08:27:39.806Z,19.17
2019-02-26T08:32:43.403Z,20.30
2019-02-26T08:37:46.826Z,27.23
2019-02-26T08:42:50.245Z,25.70
2019-02-26T08:47:53.735Z,26.47
2019-02-26T08:52:58.493Z,29.67
2019-02-26T08:58:02.050Z,25.87
2019-02-26T09:03:05.716Z,25.47
2019-02-26T09:08:10.898Z,20.30
2019-02-26T09:13:16.312Z,21.57
2019-02-26T09:18:20.430Z,26.40
2019-02-26T09:23:25.825Z,20.80
2019-02-26T09:28:32.004Z,20.30
2019-02-26T09:33:36.344Z,26.53
2019-02-26T09:38:41.892Z,23.63
2019-02-26T09:43:46.317Z,23.97
2019-02-26T09:48:50.539Z,22.80
2019-02-26T09:53:56.182Z,17.33
2019-02-26T09:58:59.139Z,21.97
2019-02-26T10:04:04.992Z,18.93
2019-02-26T10:09:10.651Z,16.27
2019-02-26T10:14:15.030Z,16.40
2019-02-26T10:19:19.526Z,15.77
2019-02-26T10:24:27.155Z,16.23
2019-02-26T10:29:28.227Z,16.13
2019-02-26T10:34:31.759Z,20.03
2019-02-26T10:39:35.213Z,16.13
2019-02-26T10:44:38.654Z,19.83
2019-02-26T10:49:42.098Z,21.73
2019-02-26T10:54:46.600Z,23.13
2019-02-26T10:59:50.141Z,20.20
2019-02-26T11:04:55.417Z,23.57
2019-02-26T11:09:59.027Z,20.53
2019-02-26T11:15:04.983Z,24.17
2019-02-26T11:20:10.919Z,25.43
2019-02-26T11:25:18.499Z,26.47
2019-02-26T11:30:27.253Z,24.87
2019-02-26T11:35:29.331Z,22.13
2019-02-26T11:40:32.775Z,25.37
2019-02-26T11:45:37.098Z,25.47
2019-02-26T11:50:44.575Z,27.30
2019-02-26T11:55:49.356Z,27.43
2019-02-26T12:00:54.161Z,26.97
2019-02-26T12:06:00.589Z,29.47
2019-02-26T12:11:03.979Z,25.47
2019-02-26T12:16:07.934Z,22.33
2019-02-26T12:21:12.852Z,24.70
2019-02-26T12:26:19.187Z,20.00
2019-02-26T12:31:21.682Z,19.67
2019-02-26T12:36:26.598Z,18.70
2019-02-26T12:41:32.433Z,19.27
2019-02-26T12:46:35.517Z,19.90
2019-02-26T12:51:39.017Z,21.50
2019-02-26T12:56:42.462Z,20.63
2019-02-26T13:01:46.819Z,21.77
2019-02-26T13:06:52.038Z,24.83
2019-02-26T13:12:01.284Z,23.50
2019-02-26T13:17:00.748Z,20.47
2019-02-26T13:22:06.706Z,21.77
2019-02-26T13:27:09.389Z,19.70
2019-02-26T13:32:16.843Z,18.80
2019-02-26T13:37:17.994Z,22.27
2019-02-26T13:42:21.442Z,22.97
2019-02-26T13:47:25.045Z,18.87
2019-02-26T13:52:28.489Z,18.07
2019-02-26T13:57:31.935Z,20.63
2019-02-26T14:02:35.430Z,19.87
2019-02-26T14:07:38.867Z,17.40
2019-02-26T14:12:42.343Z,21.83
2019-02-26T14:17:45.799Z,20.03
2019-02-26T14:22:49.328Z,13.50
2019-02-26T14:27:52.760Z,12.97
2019-02-26T14:32:56.266Z,14.03
2019-02-26T14:37:59.741Z,15.43
2019-02-26T14:43:03.154Z,12.77
2019-02-26T14:48:06.623Z,12.23
2019-02-26T14:53:10.049Z,12.60
2019-02-26T14:58:13.502Z,13.60
2019-02-26T15:03:17.003Z,13.30
2019-02-26T15:08:20.460Z,12.43
2019-02-26T15:13:25.479Z,13.23
2019-02-26T15:18:29.091Z,10.93
2019-02-26T15:23:32.502Z,13.30
2019-02-26T15:28:35.974Z,12.20
2019-02-26T15:33:39.486Z,10.67
2019-02-26T15:38:42.949Z,11.03
2019-02-26T15:43:46.455Z,12.17
2019-02-26T15:48:49.911Z,12.37
2019-02-26T15:53:55.709Z,10.13
2019-02-26T15:58:58.934Z,11.03
2019-02-26T16:04:02.379Z,10.30
2019-02-26T16:09:07.259Z,12.57
2019-02-26T16:14:10.715Z,11.53
2019-02-26T16:19:14.214Z,13.40
2019-02-26T16:24:17.664Z,14.40
2019-02-26T16:29:21.102Z,12.23
2019-02-26T16:34:24.515Z,12.20
2019-02-26T16:39:27.936Z,13.30
2019-02-26T16:44:31.627Z,11.87
2019-02-26T16:49:35.048Z,14.73
2019-02-26T16:54:38.674Z,14.37
2019-02-26T16:59:43.662Z,14.73
2019-02-26T17:04:47.106Z,21.60
2019-02-26T17:09:50.559Z,17.30
2019-02-26T17:14:54.036Z,30.93
2019-02-26T17:19:57.528Z,16.40
2019-02-26T17:25:01.037Z,13.67
2019-02-26T17:30:07.365Z,13.80
2019-02-26T17:35:11.640Z,14.13
2019-02-26T17:40:20.202Z,15.23
2019-02-26T17:45:37.229Z,14.47
2019-02-26T17:50:43.369Z,21.60
2019-02-26T17:55:47.023Z,33.40
2019-02-26T18:00:53.026Z,16.30
2019-02-26T18:05:56.435Z,17.10
2019-02-26T18:10:59.863Z,18.37
2019-02-26T18:16:09.186Z,22.00
2019-02-26T18:21:08.441Z,17.53
2019-02-26T18:26:11.893Z,17.43
2019-02-26T18:31:15.308Z,15.07
2019-02-26T18:36:18.741Z,15.67
2019-02-26T18:41:22.167Z,16.90
2019-02-26T18:46:25.593Z,16.80
2019-02-26T18:51:29.157Z,18.67
2019-02-26T18:56:36.690Z,19.07
2019-02-26T19:01:38.600Z,17.57
2019-02-26T19:06:42.017Z,17.87
2019-02-26T19:11:45.451Z,15.37
2019-02-26T19:16:48.908Z,20.17
2019-02-26T19:21:54.176Z,18.30
2019-02-26T19:26:57.548Z,15.97
2019-02-26T19:32:01.076Z,18.90
2019-02-26T19:37:04.504Z,19.13
2019-02-26T19:42:07.918Z,23.40
2019-02-26T19:47:11.347Z,21.03
2019-02-26T19:52:14.798Z,24.00
2019-02-26T19:57:18.225Z,16.00
2019-02-26T20:02:21.667Z,21.73
2019-02-26T20:07:25.089Z,21.63
2019-02-26T20:12:29.223Z,18.70
2019-02-26T20:17:32.668Z,26.67
2019-02-26T20:22:36.112Z,27.27
2019-02-26T20:27:39.537Z,23.77
2019-02-26T20:32:43.011Z,26.60
2019-02-26T20:37:46.500Z,25.70
2019-02-26T20:42:49.913Z,22.27
2019-02-26T20:47:53.416Z,19.93
2019-02-26T20:52:56.846Z,20.60
2019-02-26T20:58:00.261Z,24.57
2019-02-26T21:03:03.702Z,22.33
2019-02-26T21:08:07.288Z,19.07
2019-02-26T21:13:10.707Z,20.10
2019-02-26T21:18:14.128Z,20.43
2019-02-26T21:23:17.567Z,20.00
2019-02-26T21:28:20.982Z,20.40
2019-02-26T21:33:24.405Z,18.90
2019-02-26T21:38:27.838Z,21.20
2019-02-26T21:43:34.795Z,22.97
2019-02-26T21:48:37.233Z,18.33
2019-02-26T21:53:40.712Z,18.33
2019-02-26T21:58:44.142Z,18.20
2019-02-26T22:03:58.561Z,18.03
2019-02-26T22:09:01.744Z,20.00
2019-02-26T22:14:05.444Z,21.53
2019-02-26T22:19:08.865Z,23.63
2019-02-26T22:24:12.279Z,21.60
2019-02-26T22:29:15.860Z,23.27
2019-02-26T22:34:19.765Z,19.90
2019-02-26T22:39:23.339Z,22.17
2019-02-26T22:44:26.708Z,24.77
2019-02-26T22:49:30.176Z,22.13
2019-02-26T22:54:34.984Z,22.67
2019-02-26T22:59:40.892Z,20.70
2019-02-26T23:04:43.706Z,24.27
2019-02-26T23:09:51.920Z,25.60
2019-02-26T23:14:53.417Z,21.63
2019-02-26T23:19:57.101Z,21.73
2019-02-26T23:25:01.508Z,24.97
2019-02-26T23:30:10.840Z,26.03
2019-02-26T23:35:15.031Z,23.67
2019-02-26T23:40:19.934Z,23.97
2019-02-26T23:45:24.220Z,24.43
2019-02-26T23:50:28.367Z,27.50
2019-02-26T23:55:31.818Z,22.20
